Krabi, Thailand

2:28 PM ICT on July 30, 2016 (GMT +0700)
Ao Nang, Krabi | | Change Station

Elev 177 ft 8.05 °N, 98.84 °E | Updated 2 minutes ago

Mostly Cloudy
Mostly Cloudy
91.0 °F
Feels Like 102 °F
N
2.0
Wind Variable Wind from NNW
Gusts 4.0 mph

Today
High -- | Low -- °F
--% Chance of Precip.
Yesterday
High -- | Low -- °F
Precip. -- in
Pressure 29.86 in
Visibility 5.6 miles
Clouds Few 2000 ft
Mostly Cloudy 10000 ft
Heat Index 102 °F
Dew Point 75 °F
Humidity 60%
Rainfall 0.00 in
Snow Depth Not available.
6:16 AM 6:44 PM
Waning Crescent, 15% visible
METAR VTSP 300700Z 27011KT 240V310 9000 FEW020 BKN100 31/24 Q1011 A2986 NOSIG
Pressure 29.86 in
Visibility 5.6 miles
Clouds Few 2000 ft
Mostly Cloudy 10000 ft
Heat Index 102 °F
Dew Point 75 °F
Humidity 60%
Rainfall 0.00 in
Snow Depth Not available.
6:16 AM 6:44 PM
Waning Crescent, 15% visible
METAR VTSP 300700Z 27011KT 240V310 9000 FEW020 BKN100 31/24 Q1011 A2986 NOSIG

10-Day Weather Forecast

No radar image for this location.
×

Almanac

Astronomy

Jul. 30, 2016 Rise Set
Actual Time
Civil Twilight
Nautical Twilight
Astronomical Twilight
Moon
Length of Visible Light
Length of Day
Tomorrow will be .
, % of the Moon is Illuminated

Today's Extremes

Country Highs Country Lows

Community

WunderPhotos

Upload Photos

1,928,508 photos uploaded!

WunderBlog® & News

Nearby

Air Quality

  Air Quality AQ Index Pollutant
Not available.

Snow Depth

Station Depth Elevation

Earthquake Activity

City Distance Mag. Time & Date
Minimum magnitude displayed is 2.5.

Coastal Water Temperatures

Place Temperature

Stations

Nearby Weather Stations

Station Location Temp. Windchill Dew Point Humidity Wind Precip. Elev Updated Type